Time;durP1;ratioP1;P1;durP2;ratioP2;P2;SDS_P1;SDS_P2;PMS_P1;PMS_P2;Temp;Humidity;BMP_temperature;BMP_pressure;BME280_temperature;BME280_humidity;BME280_pressure;Samples;Min_cycle;Max_cycle;Signal;HPM_P1;HPM_P2
2023/04/28 00:01:11;;;;;;;18.77;10.50;;;;;;;;;;5054900;28;20486;-65
2023/04/28 00:03:37;;;;;;;14.63;9.30;;;;;;;;;;5063308;28;20094;-65
2023/04/28 00:06:03;;;;;;;17.98;10.23;;;;;;;;;;5058368;28;20040;-65
2023/04/28 00:08:29;;;;;;;18.02;10.40;;;;;;;;;;5064678;28;20068;-65
2023/04/28 00:10:55;;;;;;;15.98;9.43;;;;;;;;;;5061853;28;20044;-65
2023/04/28 00:13:21;;;;;;;20.80;10.23;;;;;;;;;;5052930;28;20033;-65
2023/04/28 00:15:47;;;;;;;18.45;10.30;;;;;;;;;;5060474;28;20486;-65
2023/04/28 00:18:13;;;;;;;20.00;9.75;;;;;;;;;;5037891;28;20036;-65
2023/04/28 00:20:39;;;;;;;18.13;9.95;;;;;;;;;;5048109;28;20132;-65
2023/04/28 00:23:05;;;;;;;16.02;10.07;;;;;;;;;;5044164;28;20483;-65
2023/04/28 00:25:31;;;;;;;17.10;10.25;;;;;;;;;;5051966;28;20040;-65
2023/04/28 00:27:57;;;;;;;19.02;9.63;;;;;;;;;;5055641;28;20037;-65
2023/04/28 00:30:24;;;;;;;21.48;10.50;;;;;;;;;;5049852;28;20425;-65
2023/04/28 00:32:50;;;;;;;17.65;10.05;;;;;;;;;;5049804;28;20045;-65
2023/04/28 00:35:16;;;;;;;20.92;11.35;;;;;;;;;;5051970;28;20045;-65
2023/04/28 00:37:42;;;;;;;18.17;11.43;;;;;;;;;;5048667;28;20100;-65
2023/04/28 00:40:08;;;;;;;18.77;11.85;;;;;;;;;;5045343;28;20065;-65
2023/04/28 00:42:34;;;;;;;18.00;10.48;;;;;;;;;;5051338;28;20094;-65
2023/04/28 00:45:04;;;;;;;18.10;9.73;;;;;;;;;;5067328;28;20041;-65
2023/04/28 00:47:31;;;;;;;16.40;9.93;;;;;;;;;;5050398;28;20037;-65
2023/04/28 00:49:57;;;;;;;17.33;10.02;;;;;;;;;;5046502;28;20053;-65
2023/04/28 00:52:23;;;;;;;16.55;10.23;;;;;;;;;;5048485;28;20040;-65
2023/04/28 00:54:49;;;;;;;14.52;9.73;;;;;;;;;;5051305;28;20043;-65
2023/04/28 00:57:15;;;;;;;18.85;10.40;;;;;;;;;;5049552;28;20079;-65
2023/04/28 00:59:41;;;;;;;16.25;9.35;;;;;;;;;;5054290;28;20514;-65
2023/04/28 01:02:07;;;;;;;15.07;9.80;;;;;;;;;;5057656;28;20033;-65
2023/04/28 01:04:33;;;;;;;13.27;8.25;;;;;;;;;;5051389;28;20066;-65
2023/04/28 01:07:00;;;;;;;15.32;9.45;;;;;;;;;;5046867;28;20557;-65
2023/04/28 01:09:26;;;;;;;20.55;10.93;;;;;;;;;;5043739;28;20049;-65
2023/04/28 01:11:52;;;;;;;16.05;10.15;;;;;;;;;;5051108;28;20098;-65
2023/04/28 01:14:18;;;;;;;16.25;10.07;;;;;;;;;;5050586;28;20112;-65
2023/04/28 01:16:44;;;;;;;18.35;10.50;;;;;;;;;;5060055;28;20562;-65
2023/04/28 01:19:14;;;;;;;20.05;11.10;;;;;;;;;;5058182;28;20398;-65
2023/04/28 01:21:40;;;;;;;17.25;10.43;;;;;;;;;;5041191;28;20045;-65
2023/04/28 01:24:06;;;;;;;17.58;10.65;;;;;;;;;;5049148;28;20108;-65
2023/04/28 01:26:32;;;;;;;18.30;10.45;;;;;;;;;;5050086;28;20048;-65
2023/04/28 01:28:59;;;;;;;15.43;10.05;;;;;;;;;;5052038;28;20406;-65
2023/04/28 01:31:25;;;;;;;19.60;10.63;;;;;;;;;;5062561;28;20040;-65
2023/04/28 01:33:51;;;;;;;17.02;9.63;;;;;;;;;;5051438;28;20124;-65
2023/04/28 01:36:17;;;;;;;15.88;9.77;;;;;;;;;;5051517;28;20120;-65
2023/04/28 01:38:43;;;;;;;18.77;10.23;;;;;;;;;;5044012;28;20120;-65
2023/04/28 01:41:09;;;;;;;17.90;10.32;;;;;;;;;;5046098;28;20466;-65
2023/04/28 01:43:35;;;;;;;21.10;9.93;;;;;;;;;;5051447;28;20048;-65
2023/04/28 01:46:01;;;;;;;16.40;9.90;;;;;;;;;;5051588;28;20437;-65
2023/04/28 01:48:27;;;;;;;17.90;10.40;;;;;;;;;;5058264;28;20072;-65
2023/04/28 01:50:53;;;;;;;17.83;10.20;;;;;;;;;;5069642;28;20036;-65
2023/04/28 01:53:19;;;;;;;17.70;10.15;;;;;;;;;;5042802;28;20117;-65
2023/04/28 01:55:46;;;;;;;16.70;10.05;;;;;;;;;;5050722;28;20395;-65
2023/04/28 01:58:12;;;;;;;17.40;10.73;;;;;;;;;;5050236;28;20486;-65
2023/04/28 02:00:39;;;;;;;18.98;10.95;;;;;;;;;;5039409;28;20045;-66
2023/04/28 02:03:05;;;;;;;17.15;10.82;;;;;;;;;;5032532;28;20052;-65
2023/04/28 02:05:31;;;;;;;17.70;9.95;;;;;;;;;;5049771;28;20045;-65
2023/04/28 02:07:57;;;;;;;16.77;10.40;;;;;;;;;;5054436;28;20037;-65
2023/04/28 02:10:23;;;;;;;17.52;10.73;;;;;;;;;;5042573;28;20120;-65
2023/04/28 02:12:49;;;;;;;17.38;10.57;;;;;;;;;;5041658;28;20559;-65
2023/04/28 02:15:15;;;;;;;16.20;10.40;;;;;;;;;;5033848;28;20044;-65
2023/04/28 02:17:41;;;;;;;21.17;10.60;;;;;;;;;;5048484;28;20395;-65
2023/04/28 02:20:08;;;;;;;20.45;11.38;;;;;;;;;;5055955;28;20040;-65
2023/04/28 02:22:33;;;;;;;17.80;11.13;;;;;;;;;;5063381;28;20033;-65
2023/04/28 02:24:59;;;;;;;21.52;11.50;;;;;;;;;;5049549;28;20369;-65
2023/04/28 02:27:25;;;;;;;22.95;11.68;;;;;;;;;;5049847;28;20072;-65
2023/04/28 02:29:51;;;;;;;17.52;10.93;;;;;;;;;;5045788;28;20041;-65
2023/04/28 02:32:18;;;;;;;18.50;10.73;;;;;;;;;;5054387;28;20041;-65
2023/04/28 02:34:44;;;;;;;18.55;10.93;;;;;;;;;;5054052;28;20044;-65
2023/04/28 02:37:10;;;;;;;19.15;11.27;;;;;;;;;;5059324;28;20048;-65
2023/04/28 02:39:36;;;;;;;17.42;10.43;;;;;;;;;;5046612;28;20045;-65
2023/04/28 02:42:04;;;;;;;19.05;11.02;;;;;;;;;;5053751;28;20086;-65
2023/04/28 02:44:30;;;;;;;17.40;10.95;;;;;;;;;;5053421;28;20045;-65
2023/04/28 02:46:56;;;;;;;21.17;11.43;;;;;;;;;;5046647;28;20033;-65
2023/04/28 02:49:22;;;;;;;18.90;11.13;;;;;;;;;;5073328;22;20051;-62
2023/04/28 02:51:48;;;;;;;17.33;10.55;;;;;;;;;;5081693;28;20040;-62
2023/04/28 02:54:14;;;;;;;17.73;10.82;;;;;;;;;;5098969;28;20039;-62
2023/04/28 02:56:40;;;;;;;18.25;10.38;;;;;;;;;;5093124;28;20050;-62
2023/04/28 02:59:06;;;;;;;17.73;10.45;;;;;;;;;;5069654;28;20041;-62
2023/04/28 03:01:33;;;;;;;18.90;11.18;;;;;;;;;;5091230;28;20036;-62
2023/04/28 03:03:59;;;;;;;18.58;11.10;;;;;;;;;;5075976;28;20123;-61
2023/04/28 03:06:25;;;;;;;20.33;11.13;;;;;;;;;;5089772;28;20114;-62
2023/04/28 03:08:51;;;;;;;21.98;11.43;;;;;;;;;;5105878;28;20050;-62
2023/04/28 03:11:17;;;;;;;19.65;10.32;;;;;;;;;;5096932;28;20118;-62
2023/04/28 03:13:43;;;;;;;17.55;10.43;;;;;;;;;;5094804;28;20063;-62
2023/04/28 03:16:09;;;;;;;18.00;10.27;;;;;;;;;;5068912;28;20094;-62
2023/04/28 03:18:35;;;;;;;18.42;11.85;;;;;;;;;;5089652;28;20450;-62
2023/04/28 03:21:01;;;;;;;18.42;11.13;;;;;;;;;;5087357;28;20093;-62
2023/04/28 03:23:27;;;;;;;22.15;11.02;;;;;;;;;;5101720;28;20432;-62
2023/04/28 03:25:53;;;;;;;20.58;11.50;;;;;;;;;;5097316;28;20114;-62
2023/04/28 03:28:19;;;;;;;20.83;11.88;;;;;;;;;;5073426;28;20101;-62
2023/04/28 03:30:45;;;;;;;19.70;11.60;;;;;;;;;;5080284;28;20044;-62
2023/04/28 03:33:11;;;;;;;20.40;11.38;;;;;;;;;;5093880;28;20078;-62
2023/04/28 03:35:37;;;;;;;22.58;12.18;;;;;;;;;;5093472;28;20036;-62
2023/04/28 03:38:03;;;;;;;22.00;12.18;;;;;;;;;;5089815;28;20405;-62
2023/04/28 03:40:29;;;;;;;20.75;11.35;;;;;;;;;;5110391;28;20035;-62
2023/04/28 03:42:56;;;;;;;22.10;11.98;;;;;;;;;;5092772;28;20040;-62
2023/04/28 03:45:22;;;;;;;21.63;12.13;;;;;;;;;;5093701;28;20078;-62
2023/04/28 03:47:48;;;;;;;19.65;11.73;;;;;;;;;;5089188;28;20036;-62
2023/04/28 03:50:14;;;;;;;23.23;11.65;;;;;;;;;;5066435;28;20562;-62
2023/04/28 03:52:40;;;;;;;19.67;11.50;;;;;;;;;;5092786;28;20066;-62
2023/04/28 03:55:06;;;;;;;21.15;11.88;;;;;;;;;;5095787;28;20161;-62
2023/04/28 03:57:32;;;;;;;23.65;11.93;;;;;;;;;;5100340;28;20032;-62
2023/04/28 03:59:58;;;;;;;18.67;11.63;;;;;;;;;;5088858;28;20308;-62
2023/04/28 04:02:24;;;;;;;19.02;11.38;;;;;;;;;;5087379;28;20477;-62
2023/04/28 04:04:51;;;;;;;19.70;11.45;;;;;;;;;;5091015;28;20101;-62
2023/04/28 04:07:17;;;;;;;21.48;11.43;;;;;;;;;;5090417;28;20047;-62
2023/04/28 04:09:43;;;;;;;21.23;11.75;;;;;;;;;;5101897;28;20051;-62
2023/04/28 04:12:09;;;;;;;17.98;11.63;;;;;;;;;;5109816;28;20045;-62
2023/04/28 04:14:34;;;;;;;23.20;11.48;;;;;;;;;;5108797;28;20052;-62
2023/04/28 04:17:00;;;;;;;19.63;11.63;;;;;;;;;;5096858;28;20094;-62
2023/04/28 04:19:26;;;;;;;23.17;11.48;;;;;;;;;;5092737;28;20079;-62
2023/04/28 04:21:52;;;;;;;19.42;12.02;;;;;;;;;;5096502;28;20033;-62
2023/04/28 04:24:18;;;;;;;21.13;11.05;;;;;;;;;;5086434;28;20500;-62
2023/04/28 04:26:44;;;;;;;18.67;11.63;;;;;;;;;;5102247;28;20036;-62
2023/04/28 04:29:10;;;;;;;20.77;11.50;;;;;;;;;;5090125;28;20043;-62
2023/04/28 04:31:36;;;;;;;18.70;11.60;;;;;;;;;;5093253;28;20507;-62
2023/04/28 04:34:02;;;;;;;18.08;10.93;;;;;;;;;;5091911;28;20035;-62
2023/04/28 04:36:29;;;;;;;25.02;11.85;;;;;;;;;;5095389;28;20122;-62
2023/04/28 04:38:55;;;;;;;22.02;11.30;;;;;;;;;;5084266;28;20477;-62
2023/04/28 04:41:21;;;;;;;20.23;11.07;;;;;;;;;;5075647;28;20115;-62
2023/04/28 04:43:47;;;;;;;17.52;11.02;;;;;;;;;;5074323;28;20043;-62
2023/04/28 04:46:13;;;;;;;17.50;10.85;;;;;;;;;;5094716;28;20043;-61
2023/04/28 04:48:39;;;;;;;18.55;11.48;;;;;;;;;;5107524;28;20039;-62
2023/04/28 04:51:06;;;;;;;20.80;11.10;;;;;;;;;;5067051;28;20036;-62
2023/04/28 04:53:31;;;;;;;19.33;11.13;;;;;;;;;;5083139;28;20116;-62
2023/04/28 04:55:57;;;;;;;18.30;11.45;;;;;;;;;;5061501;28;20123;-62
2023/04/28 04:58:24;;;;;;;19.52;10.55;;;;;;;;;;5086266;28;20028;-62
2023/04/28 05:00:50;;;;;;;23.55;11.00;;;;;;;;;;5095405;28;20417;-62
2023/04/28 05:03:16;;;;;;;17.27;11.05;;;;;;;;;;5096735;28;20036;-62
2023/04/28 05:05:43;;;;;;;18.42;10.63;;;;;;;;;;5091374;28;20101;-62
2023/04/28 05:08:09;;;;;;;17.38;10.77;;;;;;;;;;5083852;28;20036;-62
2023/04/28 05:10:35;;;;;;;15.68;10.23;;;;;;;;;;5082194;28;20197;-61
2023/04/28 05:13:01;;;;;;;17.60;10.18;;;;;;;;;;5092502;28;20040;-61
2023/04/28 05:15:27;;;;;;;18.17;11.10;;;;;;;;;;5095054;28;20038;-62
2023/04/28 05:17:53;;;;;;;15.45;9.93;;;;;;;;;;5108269;28;20035;-62
2023/04/28 05:20:19;;;;;;;18.60;11.52;;;;;;;;;;5083830;28;20029;-62
2023/04/28 05:22:45;;;;;;;17.77;10.23;;;;;;;;;;5090178;28;20067;-62
2023/04/28 05:25:11;;;;;;;17.52;10.10;;;;;;;;;;5099963;28;20071;-62
2023/04/28 05:27:39;;;;;;;16.65;9.80;;;;;;;;;;5084547;28;20040;-62
2023/04/28 05:30:07;;;;;;;17.98;10.32;;;;;;;;;;5085571;28;20045;-62
2023/04/28 05:32:33;;;;;;;16.98;10.23;;;;;;;;;;5096643;28;20040;-62
2023/04/28 05:35:00;;;;;;;18.20;9.77;;;;;;;;;;5089023;28;20101;-62
2023/04/28 05:37:26;;;;;;;17.40;9.95;;;;;;;;;;5083480;28;20478;-62
2023/04/28 05:39:51;;;;;;;17.83;9.88;;;;;;;;;;5089902;28;20107;-62
2023/04/28 05:42:17;;;;;;;17.08;10.57;;;;;;;;;;5083265;28;20115;-62
2023/04/28 05:44:43;;;;;;;17.05;10.15;;;;;;;;;;5089074;28;20055;-61
2023/04/28 05:47:09;;;;;;;16.45;10.50;;;;;;;;;;5077946;28;20089;-62
2023/04/28 05:49:36;;;;;;;16.95;10.35;;;;;;;;;;5101302;28;20401;-62
2023/04/28 05:52:02;;;;;;;17.10;10.20;;;;;;;;;;5085903;28;20040;-62
2023/04/28 05:54:28;;;;;;;15.60;10.65;;;;;;;;;;5074133;28;20040;-62
2023/04/28 05:56:54;;;;;;;16.45;11.32;;;;;;;;;;5085090;28;20043;-62
2023/04/28 05:59:20;;;;;;;17.60;10.82;;;;;;;;;;5099775;28;20036;-62
2023/04/28 06:01:47;;;;;;;14.73;8.80;;;;;;;;;;5087036;28;20397;-61
2023/04/28 06:04:13;;;;;;;14.07;9.15;;;;;;;;;;5070806;28;20046;-62
2023/04/28 06:06:39;;;;;;;20.10;10.57;;;;;;;;;;5097240;28;20135;-62
2023/04/28 06:09:05;;;;;;;20.27;13.77;;;;;;;;;;5074400;28;20131;-62
2023/04/28 06:11:30;;;;;;;16.35;10.10;;;;;;;;;;5100601;28;20118;-62
2023/04/28 06:13:56;;;;;;;17.92;11.98;;;;;;;;;;5111409;28;20043;-62
2023/04/28 06:16:22;;;;;;;15.15;10.18;;;;;;;;;;5111625;28;20044;-61
2023/04/28 06:18:49;;;;;;;17.40;9.38;;;;;;;;;;5090847;28;20036;-61
2023/04/28 06:21:16;;;;;;;17.85;9.77;;;;;;;;;;5071696;28;20044;-62
2023/04/28 06:23:42;;;;;;;17.73;9.88;;;;;;;;;;5086890;28;20586;-62
2023/04/28 06:26:08;;;;;;;14.82;9.60;;;;;;;;;;5102911;28;20113;-62
2023/04/28 06:28:35;;;;;;;15.05;9.40;;;;;;;;;;5091654;28;20055;-59
2023/04/28 06:31:00;;;;;;;16.25;10.25;;;;;;;;;;5089538;28;20090;-62
2023/04/28 06:33:26;;;;;;;14.27;9.65;;;;;;;;;;5064773;28;20428;-62
2023/04/28 06:35:53;;;;;;;20.02;9.38;;;;;;;;;;5092954;28;20040;-62
2023/04/28 06:38:19;;;;;;;14.70;8.93;;;;;;;;;;5097636;28;20036;-62
2023/04/28 06:40:45;;;;;;;13.45;9.63;;;;;;;;;;5098462;28;20050;-61
2023/04/28 06:43:11;;;;;;;14.57;9.00;;;;;;;;;;5089911;28;20032;-62
2023/04/28 06:45:37;;;;;;;18.05;9.52;;;;;;;;;;5087933;28;20059;-62
2023/04/28 06:48:04;;;;;;;16.92;9.75;;;;;;;;;;5089332;28;20063;-62
2023/04/28 06:50:30;;;;;;;15.63;8.90;;;;;;;;;;5060288;28;20056;-62
2023/04/28 06:52:57;;;;;;;16.15;9.43;;;;;;;;;;5096536;28;20031;-60
2023/04/28 06:55:23;;;;;;;17.40;8.70;;;;;;;;;;5094853;28;20035;-60
2023/04/28 06:57:49;;;;;;;16.83;9.48;;;;;;;;;;5099019;28;20042;-60
2023/04/28 07:00:16;;;;;;;15.75;8.85;;;;;;;;;;5083609;28;20059;-60
2023/04/28 07:02:42;;;;;;;15.50;8.95;;;;;;;;;;5104062;28;20040;-60
2023/04/28 07:05:08;;;;;;;14.80;8.85;;;;;;;;;;5085987;28;20113;-60
2023/04/28 07:07:34;;;;;;;17.30;10.57;;;;;;;;;;5094151;28;20493;-60
2023/04/28 07:10:01;;;;;;;13.85;9.40;;;;;;;;;;5095757;28;20089;-60
2023/04/28 07:12:27;;;;;;;15.18;9.70;;;;;;;;;;5068031;28;20044;-62
2023/04/28 07:14:54;;;;;;;18.10;9.98;;;;;;;;;;5089811;28;20052;-60
2023/04/28 07:17:20;;;;;;;16.67;9.80;;;;;;;;;;5074795;28;20102;-62
2023/04/28 07:19:48;;;;;;;16.88;10.52;;;;;;;;;;5073698;28;20044;-62
2023/04/28 07:22:14;;;;;;;16.88;9.68;;;;;;;;;;5076570;28;20409;-62
2023/04/28 07:24:40;;;;;;;14.25;9.55;;;;;;;;;;5091240;28;20047;-62
2023/04/28 07:27:06;;;;;;;13.55;9.10;;;;;;;;;;5094473;28;20036;-62
2023/04/28 07:29:33;;;;;;;16.25;9.30;;;;;;;;;;5094117;28;20040;-62
2023/04/28 07:32:00;;;;;;;15.70;9.05;;;;;;;;;;5086855;28;20036;-62
2023/04/28 07:34:27;;;;;;;14.13;8.75;;;;;;;;;;5089797;28;20036;-62
2023/04/28 07:36:53;;;;;;;13.38;9.25;;;;;;;;;;5100999;28;20047;-62
2023/04/28 07:39:19;;;;;;;11.18;7.85;;;;;;;;;;5093776;28;20036;-62
2023/04/28 07:41:45;;;;;;;12.85;8.77;;;;;;;;;;5090559;28;20452;-62
2023/04/28 07:44:11;;;;;;;12.48;8.57;;;;;;;;;;5108193;28;20518;-62
2023/04/28 07:46:37;;;;;;;11.27;7.93;;;;;;;;;;5095025;28;20037;-62
2023/04/28 07:49:03;;;;;;;13.02;8.20;;;;;;;;;;5090306;28;20039;-62
2023/04/28 07:51:30;;;;;;;15.25;8.88;;;;;;;;;;5102273;28;20068;-62
2023/04/28 07:53:56;;;;;;;15.05;8.43;;;;;;;;;;5102413;28;20096;-62
2023/04/28 07:56:23;;;;;;;12.63;7.72;;;;;;;;;;5106151;28;20047;-62
2023/04/28 07:58:49;;;;;;;12.52;8.20;;;;;;;;;;5091283;28;20040;-62
2023/04/28 08:01:15;;;;;;;15.23;8.93;;;;;;;;;;5093888;28;20111;-62
2023/04/28 08:03:41;;;;;;;12.32;8.32;;;;;;;;;;5108115;28;20660;-62
2023/04/28 08:06:07;;;;;;;12.38;8.90;;;;;;;;;;5078267;28;20039;-62
2023/04/28 08:08:33;;;;;;;13.48;9.52;;;;;;;;;;5103693;28;20060;-62
2023/04/28 08:10:59;;;;;;;13.55;8.45;;;;;;;;;;5093552;28;20508;-62
2023/04/28 08:13:27;;;;;;;12.57;8.13;;;;;;;;;;5100530;28;20115;-63
2023/04/28 08:15:55;;;;;;;13.13;8.63;;;;;;;;;;5098121;28;20042;-62
2023/04/28 08:18:21;;;;;;;15.95;9.23;;;;;;;;;;5091550;28;20036;-62
2023/04/28 08:20:47;;;;;;;14.75;8.48;;;;;;;;;;5093136;28;20036;-61
2023/04/28 08:23:13;;;;;;;13.73;8.80;;;;;;;;;;5079954;28;20093;-62
2023/04/28 08:25:39;;;;;;;13.38;8.98;;;;;;;;;;5091292;28;20036;-62
2023/04/28 08:28:07;;;;;;;13.98;9.32;;;;;;;;;;5092483;28;20397;-62
2023/04/28 08:30:33;;;;;;;16.92;9.70;;;;;;;;;;5096822;28;20068;-62
2023/04/28 08:32:59;;;;;;;14.32;9.40;;;;;;;;;;5085531;28;20132;-62
2023/04/28 08:35:25;;;;;;;17.05;9.60;;;;;;;;;;5058940;28;20054;-62
2023/04/28 08:37:52;;;;;;;15.48;9.60;;;;;;;;;;5065842;28;20048;-62
2023/04/28 08:40:18;;;;;;;17.13;9.35;;;;;;;;;;5089876;28;20040;-62
2023/04/28 08:42:47;;;;;;;13.48;9.45;;;;;;;;;;5098763;28;20043;-60
2023/04/28 08:45:14;;;;;;;13.48;8.75;;;;;;;;;;5098758;28;20040;-60
2023/04/28 08:47:44;;;;;;;15.00;10.35;;;;;;;;;;5111392;28;20039;-60
2023/04/28 08:50:11;;;;;;;16.13;9.63;;;;;;;;;;5099239;22;20067;-63
2023/04/28 08:52:37;;;;;;;16.83;10.27;;;;;;;;;;5090252;28;20051;-63
2023/04/28 08:55:07;;;;;;;15.02;9.93;;;;;;;;;;5085291;28;20088;-65
2023/04/28 08:57:37;;;;;;;15.27;9.52;;;;;;;;;;5081404;28;20043;-65
2023/04/28 09:00:04;;;;;;;15.90;9.53;;;;;;;;;;5084761;28;20035;-65
2023/04/28 09:02:30;;;;;;;14.82;10.32;;;;;;;;;;5074846;28;20279;-65
2023/04/28 09:04:56;;;;;;;18.95;10.63;;;;;;;;;;5071821;28;20044;-64
2023/04/28 09:07:22;;;;;;;14.75;9.68;;;;;;;;;;5079968;28;20044;-65
2023/04/28 09:09:48;;;;;;;14.23;9.70;;;;;;;;;;5079020;28;20036;-64
2023/04/28 09:12:14;;;;;;;14.10;9.77;;;;;;;;;;5085096;28;20040;-65
2023/04/28 09:14:40;;;;;;;15.77;10.60;;;;;;;;;;5069699;28;20063;-65
2023/04/28 09:17:11;;;;;;;14.73;10.55;;;;;;;;;;5075107;28;20036;-66
2023/04/28 09:19:37;;;;;;;14.95;9.82;;;;;;;;;;5081829;28;20490;-65
2023/04/28 09:22:04;;;;;;;16.25;10.55;;;;;;;;;;5091934;28;20036;-65
2023/04/28 09:24:39;;;;;;;14.25;9.70;;;;;;;;;;5083781;28;20045;-65
2023/04/28 09:27:06;;;;;;;15.63;10.13;;;;;;;;;;5071775;28;20063;-65
2023/04/28 09:29:32;;;;;;;15.75;10.68;;;;;;;;;;5079801;28;20040;-65
2023/04/28 09:32:17;;;;;;;15.02;10.43;;;;;;;;;;5084739;28;20044;-65
2023/04/28 09:34:44;;;;;;;14.20;9.98;;;;;;;;;;5091673;28;20032;-65
2023/04/28 09:37:14;;;;;;;18.05;11.00;;;;;;;;;;5091773;28;20040;-65
2023/04/28 09:39:40;;;;;;;20.20;11.07;;;;;;;;;;5092431;28;20032;-65
2023/04/28 09:42:06;;;;;;;15.27;10.25;;;;;;;;;;5084119;28;20032;-65
2023/04/28 09:44:32;;;;;;;14.70;10.57;;;;;;;;;;5083201;28;20397;-65
2023/04/28 09:46:58;;;;;;;16.05;10.48;;;;;;;;;;5091779;28;20036;-65
2023/04/28 09:49:24;;;;;;;14.05;10.68;;;;;;;;;;5091394;28;20059;-65
2023/04/28 09:51:50;;;;;;;15.35;10.52;;;;;;;;;;5091313;28;20040;-65
2023/04/28 09:54:17;;;;;;;15.32;10.48;;;;;;;;;;5073809;28;20047;-65
2023/04/28 09:56:43;;;;;;;17.48;10.65;;;;;;;;;;5090357;28;20170;-65
2023/04/28 09:59:09;;;;;;;14.23;10.48;;;;;;;;;;5077674;28;20042;-65
2023/04/28 10:01:39;;;;;;;16.20;10.77;;;;;;;;;;5073184;28;20111;-65
2023/04/28 10:04:06;;;;;;;16.23;10.57;;;;;;;;;;5071608;28;20040;-65
2023/04/28 10:06:38;;;;;;;16.67;10.85;;;;;;;;;;5071102;28;20045;-65
2023/04/28 10:09:04;;;;;;;15.90;11.43;;;;;;;;;;5071860;28;20048;-65
2023/04/28 10:11:32;;;;;;;15.80;11.27;;;;;;;;;;5071120;28;20036;-65
2023/04/28 10:13:58;;;;;;;15.32;10.27;;;;;;;;;;5083142;28;20493;-64
2023/04/28 10:16:25;;;;;;;15.05;10.85;;;;;;;;;;5071419;28;20119;-65
2023/04/28 10:18:53;;;;;;;16.90;11.02;;;;;;;;;;5072729;28;20083;-65
2023/04/28 10:21:21;;;;;;;14.02;10.85;;;;;;;;;;5086746;28;20085;-64
2023/04/28 10:23:52;;;;;;;16.95;10.13;;;;;;;;;;5091236;28;20098;-65
2023/04/28 10:26:18;;;;;;;;;;;;;;;;;;5088675;28;20102;-65
2023/04/28 10:28:48;;;;;;;15.20;9.90;;;;;;;;;;5082096;28;20013;-65
2023/04/28 10:31:21;;;;;;;15.18;10.18;;;;;;;;;;5090890;28;20079;-65
2023/04/28 10:33:48;;;;;;;16.15;10.25;;;;;;;;;;5072849;28;20041;-65
2023/04/28 10:36:33;;;;;;;16.80;10.57;;;;;;;;;;5070952;28;20098;-66
2023/04/28 10:39:09;;;;;;;16.48;10.35;;;;;;;;;;5074026;28;20045;-65
2023/04/28 10:41:36;;;;;;;18.15;10.15;;;;;;;;;;5074305;28;20039;-63
2023/04/28 10:44:21;;;;;;;16.42;11.00;;;;;;;;;;5082864;28;20072;-63
2023/04/28 10:47:03;;;;;;;15.60;10.50;;;;;;;;;;5094876;28;20404;-63
2023/04/28 10:49:49;;;;;;;16.17;10.85;;;;;;;;;;5087112;28;20127;-65
2023/04/28 10:52:34;;;;;;;16.02;10.60;;;;;;;;;;5074291;28;20051;-65
2023/04/28 10:55:18;;;;;;;14.93;10.63;;;;;;;;;;5075046;28;20043;-65
2023/04/28 10:57:44;;;;;;;19.77;10.38;;;;;;;;;;5072630;28;20047;-64
2023/04/28 11:00:29;;;;;;;17.48;10.50;;;;;;;;;;5083085;28;20486;-64
2023/04/28 11:02:56;;;;;;;12.80;10.23;;;;;;;;;;5074455;28;20115;-65
2023/04/28 11:05:22;;;;;;;16.92;10.57;;;;;;;;;;5074107;28;20072;-65
2023/04/28 11:08:07;;;;;;;13.32;10.00;;;;;;;;;;5066760;28;20076;-64
2023/04/28 11:10:51;;;;;;;14.63;10.50;;;;;;;;;;5072936;28;20041;-64
2023/04/28 11:13:30;;;;;;;14.65;10.25;;;;;;;;;;5056062;28;20055;-64
2023/04/28 11:16:03;;;;;;;14.32;10.00;;;;;;;;;;5055723;28;20051;-65
2023/04/28 11:18:29;;;;;;;12.80;9.50;;;;;;;;;;5065179;28;20052;-65
2023/04/28 11:20:57;;;;;;;12.65;9.88;;;;;;;;;;5084514;28;20426;-65
2023/04/28 11:23:28;;;;;;;13.75;10.35;;;;;;;;;;5073216;28;20041;-65
2023/04/28 11:25:54;;;;;;;13.90;10.27;;;;;;;;;;5063198;28;20040;-65
2023/04/28 11:28:20;;;;;;;14.50;10.73;;;;;;;;;;5076337;28;20140;-65
2023/04/28 11:30:46;;;;;;;13.88;9.00;;;;;;;;;;5063134;28;20127;-65
2023/04/28 11:33:12;;;;;;;12.35;8.13;;;;;;;;;;5054062;28;21623;-65
2023/04/28 11:35:42;;;;;;;11.00;8.40;;;;;;;;;;5067273;28;20119;-65
2023/04/28 11:38:08;;;;;;;13.23;8.10;;;;;;;;;;5069884;28;20040;-65
2023/04/28 11:40:34;;;;;;;12.07;8.43;;;;;;;;;;5073189;28;20305;-64
2023/04/28 11:43:02;;;;;;;16.65;9.07;;;;;;;;;;5081254;28;20032;-65
2023/04/28 11:45:28;;;;;;;14.63;9.50;;;;;;;;;;5072500;28;20040;-64
2023/04/28 11:47:54;;;;;;;11.60;9.00;;;;;;;;;;5084578;28;20378;-65
2023/04/28 11:50:36;;;;;;;10.23;8.35;;;;;;;;;;5080535;28;20040;-65
2023/04/28 11:53:03;;;;;;;10.85;8.52;;;;;;;;;;5072498;28;20124;-65
2023/04/28 11:55:29;;;;;;;13.50;7.82;;;;;;;;;;5074704;28;20586;-65
2023/04/28 11:58:14;;;;;;;12.20;8.00;;;;;;;;;;5078300;28;20509;-65
2023/04/28 12:00:40;;;;;;;11.25;8.73;;;;;;;;;;5072798;28;20397;-65
2023/04/28 12:03:08;;;;;;;12.48;8.10;;;;;;;;;;5078252;28;20107;-65
2023/04/28 12:05:36;;;;;;;10.68;8.73;;;;;;;;;;5078838;28;20498;-64
2023/04/28 12:08:02;;;;;;;13.10;10.20;;;;;;;;;;5066797;28;20485;-64
2023/04/28 12:10:28;;;;;;;14.48;9.65;;;;;;;;;;5093611;28;20036;-64
2023/04/28 12:12:54;;;;;;;12.38;9.20;;;;;;;;;;5070772;28;20043;-65
2023/04/28 12:15:22;;;;;;;16.15;10.15;;;;;;;;;;5071259;28;20043;-64
2023/04/28 12:17:49;;;;;;;15.38;10.20;;;;;;;;;;5075704;28;20051;-64
2023/04/28 12:20:37;;;;;;;17.88;10.57;;;;;;;;;;5081999;28;20436;-64
2023/04/28 12:23:03;;;;;;;13.52;10.43;;;;;;;;;;5077071;28;20039;-65
2023/04/28 12:25:29;;;;;;;14.02;11.25;;;;;;;;;;5081818;28;20085;-64
2023/04/28 12:28:01;;;;;;;19.50;12.40;;;;;;;;;;5073027;28;20036;-64
2023/04/28 12:30:27;;;;;;;14.90;12.15;;;;;;;;;;5081691;28;20040;-64
2023/04/28 12:32:54;;;;;;;16.23;11.75;;;;;;;;;;5070507;28;20098;-65
2023/04/28 12:35:24;;;;;;;16.30;12.48;;;;;;;;;;5074634;28;20040;-64
2023/04/28 12:37:51;;;;;;;19.10;14.02;;;;;;;;;;5092397;28;20047;-65
2023/04/28 12:40:17;;;;;;;20.15;14.40;;;;;;;;;;5083129;28;20036;-64
2023/04/28 12:42:43;;;;;;;22.00;15.07;;;;;;;;;;5091447;28;20040;-65
2023/04/28 12:45:09;;;;;;;20.63;15.07;;;;;;;;;;5084258;28;20028;-65
2023/04/28 12:47:36;;;;;;;23.45;16.63;;;;;;;;;;5084083;28;20181;-65
2023/04/28 12:50:02;;;;;;;23.17;16.58;;;;;;;;;;5067762;28;20040;-64
2023/04/28 12:52:28;;;;;;;24.10;17.83;;;;;;;;;;5083240;28;20036;-64
2023/04/28 12:54:54;;;;;;;25.00;18.33;;;;;;;;;;5064666;28;20144;-64
2023/04/28 12:57:20;;;;;;;26.67;18.85;;;;;;;;;;5088094;28;20544;-65
2023/04/28 12:59:46;;;;;;;22.73;17.95;;;;;;;;;;5072826;28;20040;-65
2023/04/28 13:02:13;;;;;;;24.65;19.42;;;;;;;;;;5071307;28;20044;-65
2023/04/28 13:04:41;;;;;;;29.92;18.67;;;;;;;;;;5071366;28;20508;-65
2023/04/28 13:07:08;;;;;;;26.67;19.65;;;;;;;;;;5067087;28;20071;-65
2023/04/28 13:09:34;;;;;;;26.00;18.98;;;;;;;;;;5088926;28;20036;-65
2023/04/28 13:12:02;;;;;;;27.25;19.42;;;;;;;;;;5086745;28;20076;-65
2023/04/28 13:14:28;;;;;;;27.55;19.65;;;;;;;;;;5080692;28;20036;-65
2023/04/28 13:16:54;;;;;;;26.20;19.85;;;;;;;;;;5078869;28;20060;-65
2023/04/28 13:19:21;;;;;;;29.75;19.70;;;;;;;;;;5081953;28;20097;-64
2023/04/28 13:21:47;;;;;;;26.00;19.63;;;;;;;;;;5080101;28;20060;-65
2023/04/28 13:24:13;;;;;;;34.35;22.25;;;;;;;;;;5057664;28;20409;-65
2023/04/28 13:26:39;;;;;;;33.67;22.08;;;;;;;;;;5073513;28;20041;-64
2023/04/28 13:29:07;;;;;;;29.38;20.30;;;;;;;;;;5079029;28;20047;-63
2023/04/28 13:31:33;;;;;;;30.02;21.60;;;;;;;;;;5083626;28;20063;-63
2023/04/28 13:34:00;;;;;;;33.08;23.20;;;;;;;;;;5069709;28;20559;-63
2023/04/28 13:36:28;;;;;;;30.42;22.52;;;;;;;;;;5079655;28;20522;-63
2023/04/28 13:38:54;;;;;;;35.78;25.58;;;;;;;;;;5053096;28;20417;-64
2023/04/28 13:41:20;;;;;;;38.13;25.88;;;;;;;;;;5050947;28;20033;-63
2023/04/28 13:43:46;;;;;;;45.78;28.60;;;;;;;;;;5061994;28;20040;-64
2023/04/28 13:46:13;;;;;;;39.28;28.05;;;;;;;;;;5070339;28;20436;-64
2023/04/28 13:48:39;;;;;;;42.83;27.88;;;;;;;;;;5080784;28;20043;-64
2023/04/28 13:51:05;;;;;;;47.53;29.10;;;;;;;;;;5071005;28;20080;-64
2023/04/28 13:53:31;;;;;;;41.28;27.98;;;;;;;;;;5077333;28;20440;-64
2023/04/28 13:55:57;;;;;;;42.13;29.20;;;;;;;;;;5071784;28;20215;-64
2023/04/28 13:58:27;;;;;;;40.30;29.20;;;;;;;;;;5053748;28;20052;-64
2023/04/28 14:00:53;;;;;;;42.63;29.10;;;;;;;;;;5071041;28;20462;-64
2023/04/28 14:03:23;;;;;;;46.42;31.60;;;;;;;;;;5071380;28;20045;-64
2023/04/28 14:05:49;;;;;;;45.97;30.42;;;;;;;;;;5071222;28;20071;-64
2023/04/28 14:08:16;;;;;;;46.47;31.70;;;;;;;;;;5079977;28;20036;-64
2023/04/28 14:10:42;;;;;;;45.90;31.20;;;;;;;;;;5091213;28;20089;-64
2023/04/28 14:13:08;;;;;;;47.67;32.60;;;;;;;;;;5088172;28;20044;-64
2023/04/28 14:15:34;;;;;;;47.92;32.92;;;;;;;;;;5075365;28;20554;-64
2023/04/28 14:18:00;;;;;;;44.72;31.67;;;;;;;;;;5086901;28;20289;-64
2023/04/28 14:20:27;;;;;;;47.60;32.88;;;;;;;;;;5095380;28;20513;-64